sensor_id;sensor_type;location;lat;lon;timestamp;pressure;altitude;pressure_sealevel;temperature;humidity
52291;BME280;39663;45.432;28.050;2023-05-18T00:08:07;101015.92;;;17.60;41.99
52291;BME280;39663;45.432;28.050;2023-05-18T00:08:39;101013.43;;;17.97;42.23
52291;BME280;39663;45.432;28.050;2023-05-18T00:09:10;101014.33;;;17.91;42.30
52291;BME280;39663;45.432;28.050;2023-05-18T00:09:42;101014.31;;;17.75;41.69
52291;BME280;39663;45.432;28.050;2023-05-18T00:10:13;101014.50;;;17.96;41.64
52291;BME280;39663;45.432;28.050;2023-05-18T00:10:45;101015.03;;;17.88;41.91
52291;BME280;39663;45.432;28.050;2023-05-18T00:11:17;101017.10;;;17.92;41.43
52291;BME280;39663;45.432;28.050;2023-05-18T00:11:48;101015.16;;;17.83;41.80
52291;BME280;39663;45.432;28.050;2023-05-18T00:12:20;101014.93;;;18.07;41.82
52291;BME280;39663;45.432;28.050;2023-05-18T00:12:51;101013.18;;;17.95;41.70
52291;BME280;39663;45.432;28.050;2023-05-18T00:13:22;101014.39;;;18.15;41.57
52291;BME280;39663;45.432;28.050;2023-05-18T00:13:54;101015.32;;;17.91;41.20
52291;BME280;39663;45.432;28.050;2023-05-18T00:14:25;101016.36;;;18.14;41.67
52291;BME280;39663;45.432;28.050;2023-05-18T00:14:57;101016.54;;;17.85;41.47
52291;BME280;39663;45.432;28.050;2023-05-18T00:15:29;101017.05;;;17.69;41.24
52291;BME280;39663;45.432;28.050;2023-05-18T00:16:00;101016.91;;;17.97;41.22
52291;BME280;39663;45.432;28.050;2023-05-18T00:16:32;101016.63;;;17.83;41.13
52291;BME280;39663;45.432;28.050;2023-05-18T00:17:03;101018.29;;;17.72;41.52
52291;BME280;39663;45.432;28.050;2023-05-18T00:17:35;101016.73;;;17.88;41.19
52291;BME280;39663;45.432;28.050;2023-05-18T00:18:06;101018.38;;;17.69;41.24
52291;BME280;39663;45.432;28.050;2023-05-18T00:18:37;101020.61;;;17.63;42.36
52291;BME280;39663;45.432;28.050;2023-05-18T00:19:09;101019.23;;;18.01;41.34
52291;BME280;39663;45.432;28.050;2023-05-18T00:19:40;101019.93;;;17.98;41.04
52291;BME280;39663;45.432;28.050;2023-05-18T00:20:11;101018.62;;;17.98;41.35
52291;BME280;39663;45.432;28.050;2023-05-18T00:20:43;101021.77;;;17.88;41.07
52291;BME280;39663;45.432;28.050;2023-05-18T00:21:14;101021.71;;;18.01;41.42
52291;BME280;39663;45.432;28.050;2023-05-18T00:21:47;101021.67;;;17.94;41.19
52291;BME280;39663;45.432;28.050;2023-05-18T00:22:18;101026.83;;;17.89;41.06
52291;BME280;39663;45.432;28.050;2023-05-18T00:22:50;101026.78;;;17.91;40.99
52291;BME280;39663;45.432;28.050;2023-05-18T00:23:21;101027.34;;;17.93;41.28
52291;BME280;39663;45.432;28.050;2023-05-18T00:23:52;101029.84;;;17.77;41.11
52291;BME280;39663;45.432;28.050;2023-05-18T00:24:24;101030.57;;;17.99;41.40
52291;BME280;39663;45.432;28.050;2023-05-18T00:24:55;101031.08;;;18.01;41.27
52291;BME280;39663;45.432;28.050;2023-05-18T00:25:26;101031.96;;;18.03;41.11
52291;BME280;39663;45.432;28.050;2023-05-18T00:25:58;101033.40;;;18.06;41.11
52291;BME280;39663;45.432;28.050;2023-05-18T00:26:30;101032.55;;;17.84;40.74
52291;BME280;39663;45.432;28.050;2023-05-18T00:27:02;101032.99;;;17.90;40.97
52291;BME280;39663;45.432;28.050;2023-05-18T00:27:33;101031.92;;;17.61;41.23
52291;BME280;39663;45.432;28.050;2023-05-18T00:28:04;101031.61;;;17.94;40.89
52291;BME280;39663;45.432;28.050;2023-05-18T00:28:36;101033.69;;;17.50;41.18
52291;BME280;39663;45.432;28.050;2023-05-18T00:29:08;101034.95;;;17.64;41.23
52291;BME280;39663;45.432;28.050;2023-05-18T00:29:40;101034.16;;;17.74;41.02
52291;BME280;39663;45.432;28.050;2023-05-18T00:30:12;101033.70;;;17.37;41.34
52291;BME280;39663;45.432;28.050;2023-05-18T00:30:43;101035.27;;;17.47;41.63
52291;BME280;39663;45.432;28.050;2023-05-18T00:31:15;101034.98;;;17.40;41.50
52291;BME280;39663;45.432;28.050;2023-05-18T00:31:46;101035.00;;;17.52;41.16
52291;BME280;39663;45.432;28.050;2023-05-18T00:32:18;101034.33;;;17.52;41.34
52291;BME280;39663;45.432;28.050;2023-05-18T00:32:49;101034.57;;;17.50;41.74
52291;BME280;39663;45.432;28.050;2023-05-18T00:33:21;101034.07;;;17.29;41.56
52291;BME280;39663;45.432;28.050;2023-05-18T00:33:53;101031.63;;;17.63;41.60
52291;BME280;39663;45.432;28.050;2023-05-18T00:34:24;101031.40;;;17.45;41.70
52291;BME280;39663;45.432;28.050;2023-05-18T00:34:55;101031.47;;;17.29;41.87
52291;BME280;39663;45.432;28.050;2023-05-18T00:35:27;101032.09;;;17.47;41.81
52291;BME280;39663;45.432;28.050;2023-05-18T00:35:58;101031.72;;;17.27;41.81
52291;BME280;39663;45.432;28.050;2023-05-18T00:36:30;101032.18;;;17.25;41.71
52291;BME280;39663;45.432;28.050;2023-05-18T00:37:01;101031.73;;;17.38;41.76
52291;BME280;39663;45.432;28.050;2023-05-18T00:37:33;101033.45;;;17.65;41.42
52291;BME280;39663;45.432;28.050;2023-05-18T00:38:04;101035.61;;;17.56;41.25
52291;BME280;39663;45.432;28.050;2023-05-18T00:38:36;101035.37;;;17.87;41.07
52291;BME280;39663;45.432;28.050;2023-05-18T00:39:08;101034.49;;;17.51;41.19
52291;BME280;39663;45.432;28.050;2023-05-18T00:39:39;101035.61;;;17.59;41.37
52291;BME280;39663;45.432;28.050;2023-05-18T00:40:11;101035.84;;;17.38;41.70
52291;BME280;39663;45.432;28.050;2023-05-18T00:40:43;101035.52;;;17.45;41.84
52291;BME280;39663;45.432;28.050;2023-05-18T00:41:14;101036.16;;;17.42;41.66
52291;BME280;39663;45.432;28.050;2023-05-18T00:41:46;101033.56;;;17.62;41.52
52291;BME280;39663;45.432;28.050;2023-05-18T00:42:17;101033.30;;;17.55;41.71
52291;BME280;39663;45.432;28.050;2023-05-18T00:42:49;101034.07;;;17.63;41.50
52291;BME280;39663;45.432;28.050;2023-05-18T00:43:20;101032.39;;;17.73;41.55
52291;BME280;39663;45.432;28.050;2023-05-18T00:43:52;101034.55;;;17.45;41.45
52291;BME280;39663;45.432;28.050;2023-05-18T00:44:23;101035.49;;;17.45;41.36
52291;BME280;39663;45.432;28.050;2023-05-18T00:44:55;101037.73;;;17.43;41.60
52291;BME280;39663;45.432;28.050;2023-05-18T00:45:26;101032.47;;;17.48;41.28
52291;BME280;39663;45.432;28.050;2023-05-18T00:45:58;101034.23;;;17.67;41.71
52291;BME280;39663;45.432;28.050;2023-05-18T00:46:29;101033.76;;;17.58;41.61
52291;BME280;39663;45.432;28.050;2023-05-18T00:47:01;101035.43;;;17.51;41.37
52291;BME280;39663;45.432;28.050;2023-05-18T00:47:33;101036.71;;;17.53;41.40
52291;BME280;39663;45.432;28.050;2023-05-18T00:48:05;101035.34;;;17.72;41.42
52291;BME280;39663;45.432;28.050;2023-05-18T00:48:36;101033.87;;;17.55;41.40
52291;BME280;39663;45.432;28.050;2023-05-18T00:49:08;101032.79;;;17.41;41.32
52291;BME280;39663;45.432;28.050;2023-05-18T00:49:41;101035.04;;;17.59;41.64
52291;BME280;39663;45.432;28.050;2023-05-18T00:50:12;101032.86;;;17.62;41.65
52291;BME280;39663;45.432;28.050;2023-05-18T00:50:44;101032.22;;;17.48;41.54
52291;BME280;39663;45.432;28.050;2023-05-18T00:51:16;101034.41;;;17.68;41.57
52291;BME280;39663;45.432;28.050;2023-05-18T00:51:48;101031.63;;;17.40;41.70
52291;BME280;39663;45.432;28.050;2023-05-18T00:52:20;101034.67;;;17.24;41.70
52291;BME280;39663;45.432;28.050;2023-05-18T00:52:52;101036.42;;;17.54;41.82
52291;BME280;39663;45.432;28.050;2023-05-18T00:53:24;101038.17;;;17.32;41.75
52291;BME280;39663;45.432;28.050;2023-05-18T00:53:56;101038.47;;;17.37;42.11
52291;BME280;39663;45.432;28.050;2023-05-18T00:54:29;101038.95;;;17.25;41.94
52291;BME280;39663;45.432;28.050;2023-05-18T00:55:01;101035.97;;;17.18;42.24
52291;BME280;39663;45.432;28.050;2023-05-18T00:55:32;101035.44;;;17.40;42.14
52291;BME280;39663;45.432;28.050;2023-05-18T00:56:04;101035.73;;;17.31;41.96
52291;BME280;39663;45.432;28.050;2023-05-18T00:56:36;101035.98;;;17.50;41.90
52291;BME280;39663;45.432;28.050;2023-05-18T00:57:08;101033.98;;;17.24;42.03
52291;BME280;39663;45.432;28.050;2023-05-18T00:57:40;101034.16;;;17.34;41.87
52291;BME280;39663;45.432;28.050;2023-05-18T00:58:11;101033.87;;;17.30;42.01
52291;BME280;39663;45.432;28.050;2023-05-18T00:58:43;101036.01;;;17.55;41.70
52291;BME280;39663;45.432;28.050;2023-05-18T00:59:15;101035.42;;;17.60;41.76
52291;BME280;39663;45.432;28.050;2023-05-18T00:59:47;101035.91;;;17.45;41.54
52291;BME280;39663;45.432;28.050;2023-05-18T01:00:19;101035.52;;;17.71;41.59
52291;BME280;39663;45.432;28.050;2023-05-18T01:01:13;101036.13;;;17.34;41.98
52291;BME280;39663;45.432;28.050;2023-05-18T01:01:44;101033.90;;;17.00;42.35
52291;BME280;39663;45.432;28.050;2023-05-18T01:02:16;101034.79;;;17.00;42.31
52291;BME280;39663;45.432;28.050;2023-05-18T01:02:48;101035.27;;;17.12;42.20
52291;BME280;39663;45.432;28.050;2023-05-18T01:03:19;101036.05;;;17.34;42.21
52291;BME280;39663;45.432;28.050;2023-05-18T01:03:51;101035.07;;;17.21;42.16
52291;BME280;39663;45.432;28.050;2023-05-18T01:04:22;101036.24;;;17.22;42.18
52291;BME280;39663;45.432;28.050;2023-05-18T01:04:53;101036.43;;;17.35;41.97
52291;BME280;39663;45.432;28.050;2023-05-18T01:05:25;101036.80;;;17.35;42.47
52291;BME280;39663;45.432;28.050;2023-05-18T01:05:56;101035.78;;;17.25;41.98
52291;BME280;39663;45.432;28.050;2023-05-18T01:06:29;101036.22;;;17.43;42.00
52291;BME280;39663;45.432;28.050;2023-05-18T01:07:00;101035.77;;;17.22;42.44
52291;BME280;39663;45.432;28.050;2023-05-18T01:07:32;101035.78;;;17.23;42.62
52291;BME280;39663;45.432;28.050;2023-05-18T01:08:04;101037.23;;;17.35;42.29
52291;BME280;39663;45.432;28.050;2023-05-18T01:08:36;101037.13;;;17.40;42.16
52291;BME280;39663;45.432;28.050;2023-05-18T01:09:10;101037.57;;;16.45;43.17
52291;BME280;39663;45.432;28.050;2023-05-18T01:09:42;101034.55;;;16.69;42.65
52291;BME280;39663;45.432;28.050;2023-05-18T01:10:16;101036.78;;;16.62;43.04
52291;BME280;39663;45.432;28.050;2023-05-18T01:10:50;101035.42;;;17.07;42.99
52291;BME280;39663;45.432;28.050;2023-05-18T01:11:38;101033.87;;;17.02;42.73
52291;BME280;39663;45.432;28.050;2023-05-18T01:12:17;101032.80;;;16.85;42.96
52291;BME280;39663;45.432;28.050;2023-05-18T01:12:55;101033.74;;;16.44;43.82
52291;BME280;39663;45.432;28.050;2023-05-18T01:13:34;101034.02;;;16.35;43.68
52291;BME280;39663;45.432;28.050;2023-05-18T01:14:17;101032.72;;;17.05;43.15
52291;BME280;39663;45.432;28.050;2023-05-18T01:14:53;101032.07;;;16.30;43.95
52291;BME280;39663;45.432;28.050;2023-05-18T01:15:33;101033.47;;;16.70;43.58
52291;BME280;39663;45.432;28.050;2023-05-18T01:16:09;101034.12;;;16.79;43.45
52291;BME280;39663;45.432;28.050;2023-05-18T01:16:50;101033.12;;;16.86;43.27
52291;BME280;39663;45.432;28.050;2023-05-18T01:17:31;101028.24;;;16.15;44.21
52291;BME280;39663;45.432;28.050;2023-05-18T01:18:10;101033.93;;;16.46;43.85
52291;BME280;39663;45.432;28.050;2023-05-18T01:18:48;101031.71;;;16.10;44.35
52291;BME280;39663;45.432;28.050;2023-05-18T01:19:35;101032.46;;;15.92;44.62
52291;BME280;39663;45.432;28.050;2023-05-18T01:20:17;101034.67;;;15.95;44.68
52291;BME280;39663;45.432;28.050;2023-05-18T01:20:58;101033.11;;;15.82;44.90
52291;BME280;39663;45.432;28.050;2023-05-18T01:21:42;101033.62;;;15.86;44.84
52291;BME280;39663;45.432;28.050;2023-05-18T01:22:31;101035.84;;;16.15;44.91
52291;BME280;39663;45.432;28.050;2023-05-18T01:23:21;101031.09;;;16.19;44.40
52291;BME280;39663;45.432;28.050;2023-05-18T01:24:12;101033.99;;;16.13;44.92
52291;BME280;39663;45.432;28.050;2023-05-18T01:24:53;101034.26;;;15.97;45.15
52291;BME280;39663;45.432;28.050;2023-05-18T01:25:33;101027.07;;;16.33;44.72
52291;BME280;39663;45.432;28.050;2023-05-18T01:26:13;101026.60;;;16.09;44.54
52291;BME280;39663;45.432;28.050;2023-05-18T01:26:46;101027.43;;;16.25;44.50
52291;BME280;39663;45.432;28.050;2023-05-18T01:27:21;101028.17;;;16.57;43.88
52291;BME280;39663;45.432;28.050;2023-05-18T01:27:54;101030.94;;;16.65;44.06
52291;BME280;39663;45.432;28.050;2023-05-18T01:28:31;101025.59;;;16.29;44.30
52291;BME280;39663;45.432;28.050;2023-05-18T01:29:05;101025.41;;;16.25;44.32
52291;BME280;39663;45.432;28.050;2023-05-18T01:29:37;101028.66;;;16.20;44.85
52291;BME280;39663;45.432;28.050;2023-05-18T01:30:09;101028.74;;;16.10;44.83
52291;BME280;39663;45.432;28.050;2023-05-18T01:30:41;101027.77;;;16.35;44.48
52291;BME280;39663;45.432;28.050;2023-05-18T01:31:13;101028.70;;;16.01;45.05
52291;BME280;39663;45.432;28.050;2023-05-18T01:31:45;101028.41;;;16.46;44.96
52291;BME280;39663;45.432;28.050;2023-05-18T01:32:18;101024.96;;;16.40;44.79
52291;BME280;39663;45.432;28.050;2023-05-18T01:32:49;101026.09;;;16.06;44.99
52291;BME280;39663;45.432;28.050;2023-05-18T01:33:21;101025.15;;;16.19;44.95
52291;BME280;39663;45.432;28.050;2023-05-18T01:33:52;101027.20;;;15.74;45.66
52291;BME280;39663;45.432;28.050;2023-05-18T01:34:23;101029.14;;;15.71;45.82
52291;BME280;39663;45.432;28.050;2023-05-18T01:34:55;101029.02;;;15.89;45.86
52291;BME280;39663;45.432;28.050;2023-05-18T01:35:26;101028.07;;;16.09;45.81
52291;BME280;39663;45.432;28.050;2023-05-18T01:35:58;101026.71;;;16.07;45.53
52291;BME280;39663;45.432;28.050;2023-05-18T01:36:29;101025.06;;;16.52;44.96
52291;BME280;39663;45.432;28.050;2023-05-18T01:37:01;101023.36;;;16.76;44.81
52291;BME280;39663;45.432;28.050;2023-05-18T01:37:33;101028.04;;;16.13;45.42
52291;BME280;39663;45.432;28.050;2023-05-18T01:38:04;101028.23;;;16.21;45.41
52291;BME280;39663;45.432;28.050;2023-05-18T01:38:37;101028.60;;;16.08;45.52
52291;BME280;39663;45.432;28.050;2023-05-18T01:39:08;101029.36;;;15.91;45.68
52291;BME280;39663;45.432;28.050;2023-05-18T01:39:41;101027.01;;;16.42;45.26
52291;BME280;39663;45.432;28.050;2023-05-18T01:40:12;101028.44;;;15.81;45.75
52291;BME280;39663;45.432;28.050;2023-05-18T01:40:50;101028.85;;;15.96;45.61
52291;BME280;39663;45.432;28.050;2023-05-18T01:41:24;101030.25;;;15.84;46.18
52291;BME280;39663;45.432;28.050;2023-05-18T01:42:00;101030.48;;;15.55;46.29
52291;BME280;39663;45.432;28.050;2023-05-18T01:42:37;101028.54;;;16.06;45.87
52291;BME280;39663;45.432;28.050;2023-05-18T01:43:11;101032.28;;;16.15;45.98
52291;BME280;39663;45.432;28.050;2023-05-18T01:43:51;101031.01;;;16.57;45.50
52291;BME280;39663;45.432;28.050;2023-05-18T01:44:26;101032.85;;;16.36;45.53
52291;BME280;39663;45.432;28.050;2023-05-18T01:45:05;101032.50;;;16.29;45.42
52291;BME280;39663;45.432;28.050;2023-05-18T01:45:39;101035.23;;;16.45;45.76
52291;BME280;39663;45.432;28.050;2023-05-18T01:46:16;101031.52;;;16.46;45.49
52291;BME280;39663;45.432;28.050;2023-05-18T01:46:58;101033.29;;;16.32;45.34
52291;BME280;39663;45.432;28.050;2023-05-18T01:47:30;101036.40;;;16.46;45.77
52291;BME280;39663;45.432;28.050;2023-05-18T01:48:04;101037.84;;;15.56;46.76
52291;BME280;39663;45.432;28.050;2023-05-18T01:48:38;101038.34;;;16.06;46.49
52291;BME280;39663;45.432;28.050;2023-05-18T01:49:16;101037.58;;;15.57;46.69
52291;BME280;39663;45.432;28.050;2023-05-18T01:49:55;101037.10;;;16.11;46.28
52291;BME280;39663;45.432;28.050;2023-05-18T01:50:35;101036.68;;;15.83;46.25
52291;BME280;39663;45.432;28.050;2023-05-18T01:51:12;101040.22;;;16.19;45.99
52291;BME280;39663;45.432;28.050;2023-05-18T01:51:45;101037.36;;;16.37;46.16
52291;BME280;39663;45.432;28.050;2023-05-18T01:52:21;101038.28;;;16.12;46.19
52291;BME280;39663;45.432;28.050;2023-05-18T01:52:59;101040.98;;;15.58;46.64
52291;BME280;39663;45.432;28.050;2023-05-18T01:53:38;101039.17;;;15.76;46.34
52291;BME280;39663;45.432;28.050;2023-05-18T01:54:17;101043.27;;;15.83;46.52
52291;BME280;39663;45.432;28.050;2023-05-18T01:54:53;101043.19;;;16.18;46.30
52291;BME280;39663;45.432;28.050;2023-05-18T01:55:29;101044.41;;;16.07;46.15
52291;BME280;39663;45.432;28.050;2023-05-18T01:56:03;101047.27;;;16.01;46.10
52291;BME280;39663;45.432;28.050;2023-05-18T01:56:38;101047.74;;;15.56;46.67
52291;BME280;39663;45.432;28.050;2023-05-18T01:57:10;101047.99;;;15.41;47.17
52291;BME280;39663;45.432;28.050;2023-05-18T01:57:44;101048.69;;;16.04;46.43
52291;BME280;39663;45.432;28.050;2023-05-18T01:58:17;101049.17;;;15.36;46.76
52291;BME280;39663;45.432;28.050;2023-05-18T01:58:49;101049.07;;;15.56;46.85
52291;BME280;39663;45.432;28.050;2023-05-18T01:59:22;101047.84;;;15.48;46.93
52291;BME280;39663;45.432;28.050;2023-05-18T01:59:54;101048.15;;;15.48;46.88
52291;BME280;39663;45.432;28.050;2023-05-18T02:00:26;101048.82;;;15.50;46.84
52291;BME280;39663;45.432;28.050;2023-05-18T02:00:58;101053.84;;;15.01;47.23
52291;BME280;39663;45.432;28.050;2023-05-18T02:01:29;101054.89;;;14.75;47.75
52291;BME280;39663;45.432;28.050;2023-05-18T02:02:02;101056.65;;;14.97;47.25
52291;BME280;39663;45.432;28.050;2023-05-18T02:02:35;101057.73;;;15.20;47.37
52291;BME280;39663;45.432;28.050;2023-05-18T02:03:06;101054.69;;;15.37;47.04
52291;BME280;39663;45.432;28.050;2023-05-18T02:03:37;101054.76;;;15.31;47.11
52291;BME280;39663;45.432;28.050;2023-05-18T02:04:09;101052.74;;;15.83;46.59
52291;BME280;39663;45.432;28.050;2023-05-18T02:04:41;101053.14;;;15.74;46.66
52291;BME280;39663;45.432;28.050;2023-05-18T02:05:12;101051.73;;;15.72;46.65
52291;BME280;39663;45.432;28.050;2023-05-18T02:05:43;101050.07;;;15.45;46.66
52291;BME280;39663;45.432;28.050;2023-05-18T02:06:15;101056.23;;;14.81;47.76
52291;BME280;39663;45.432;28.050;2023-05-18T02:06:46;101055.15;;;14.59;48.02
52291;BME280;39663;45.432;28.050;2023-05-18T02:07:17;101055.91;;;15.15;47.76
52291;BME280;39663;45.432;28.050;2023-05-18T02:07:49;101055.84;;;15.31;47.25
52291;BME280;39663;45.432;28.050;2023-05-18T02:08:20;101052.40;;;15.36;47.03
52291;BME280;39663;45.432;28.050;2023-05-18T02:08:52;101053.01;;;16.15;46.31
52291;BME280;39663;45.432;28.050;2023-05-18T02:09:23;101049.52;;;16.05;46.14
52291;BME280;39663;45.432;28.050;2023-05-18T02:09:55;101049.97;;;15.51;46.40
52291;BME280;39663;45.432;28.050;2023-05-18T02:10:26;101047.27;;;15.88;46.49
52291;BME280;39663;45.432;28.050;2023-05-18T02:10:58;101048.30;;;15.94;46.19
52291;BME280;39663;45.432;28.050;2023-05-18T02:11:29;101046.84;;;16.01;46.28
52291;BME280;39663;45.432;28.050;2023-05-18T02:12:00;101046.22;;;15.70;46.67
52291;BME280;39663;45.432;28.050;2023-05-18T02:12:32;101048.86;;;15.50;47.05
52291;BME280;39663;45.432;28.050;2023-05-18T02:13:03;101047.61;;;15.55;47.03
52291;BME280;39663;45.432;28.050;2023-05-18T02:13:34;101050.58;;;14.88;47.83
52291;BME280;39663;45.432;28.050;2023-05-18T02:14:06;101048.26;;;15.28;47.19
52291;BME280;39663;45.432;28.050;2023-05-18T02:14:37;101050.12;;;15.00;47.94
52291;BME280;39663;45.432;28.050;2023-05-18T02:15:09;101048.48;;;15.39;47.29
52291;BME280;39663;45.432;28.050;2023-05-18T02:15:41;101046.94;;;15.38;47.03
52291;BME280;39663;45.432;28.050;2023-05-18T02:16:12;101044.96;;;15.82;46.49
52291;BME280;39663;45.432;28.050;2023-05-18T02:16:44;101043.67;;;16.02;46.52
52291;BME280;39663;45.432;28.050;2023-05-18T02:17:15;101046.00;;;14.95;47.99
52291;BME280;39663;45.432;28.050;2023-05-18T02:17:47;101048.45;;;15.23;47.54
52291;BME280;39663;45.432;28.050;2023-05-18T02:18:19;101042.94;;;15.40;47.04
52291;BME280;39663;45.432;28.050;2023-05-18T02:18:50;101048.01;;;15.44;47.35
52291;BME280;39663;45.432;28.050;2023-05-18T02:19:22;101048.88;;;15.36;47.28
52291;BME280;39663;45.432;28.050;2023-05-18T02:19:53;101047.90;;;15.42;47.51
52291;BME280;39663;45.432;28.050;2023-05-18T02:20:24;101045.36;;;15.48;47.39
52291;BME280;39663;45.432;28.050;2023-05-18T02:20:57;101045.71;;;15.71;46.93
52291;BME280;39663;45.432;28.050;2023-05-18T02:21:29;101050.60;;;15.40;47.68
52291;BME280;39663;45.432;28.050;2023-05-18T02:22:00;101043.03;;;15.80;46.79
52291;BME280;39663;45.432;28.050;2023-05-18T02:22:32;101045.39;;;15.73;46.87
52291;BME280;39663;45.432;28.050;2023-05-18T02:23:03;101045.33;;;15.96;46.59
52291;BME280;39663;45.432;28.050;2023-05-18T02:23:35;101046.16;;;15.71;46.52
52291;BME280;39663;45.432;28.050;2023-05-18T02:24:07;101044.21;;;15.66;46.46
52291;BME280;39663;45.432;28.050;2023-05-18T02:24:38;101045.76;;;16.04;46.64
52291;BME280;39663;45.432;28.050;2023-05-18T02:25:10;101041.83;;;15.90;46.32
52291;BME280;39663;45.432;28.050;2023-05-18T02:25:41;101041.19;;;16.28;46.09
52291;BME280;39663;45.432;28.050;2023-05-18T02:26:13;101042.36;;;16.38;45.98
52291;BME280;39663;45.432;28.050;2023-05-18T02:26:44;101041.89;;;16.23;45.57
52291;BME280;39663;45.432;28.050;2023-05-18T02:27:16;101040.57;;;16.67;45.30
52291;BME280;39663;45.432;28.050;2023-05-18T02:27:48;101043.45;;;16.59;45.21
52291;BME280;39663;45.432;28.050;2023-05-18T02:28:19;101041.75;;;16.57;45.29
52291;BME280;39663;45.432;28.050;2023-05-18T02:28:51;101044.79;;;16.86;45.18
52291;BME280;39663;45.432;28.050;2023-05-18T02:29:22;101045.11;;;16.68;45.02
52291;BME280;39663;45.432;28.050;2023-05-18T02:29:54;101043.49;;;16.37;44.88
52291;BME280;39663;45.432;28.050;2023-05-18T02:30:25;101049.51;;;16.47;44.91
52291;BME280;39663;45.432;28.050;2023-05-18T02:31:05;101051.79;;;16.24;45.16
52291;BME280;39663;45.432;28.050;2023-05-18T02:31:36;101051.64;;;16.46;45.08
52291;BME280;39663;45.432;28.050;2023-05-18T02:32:08;101050.62;;;16.80;44.90
52291;BME280;39663;45.432;28.050;2023-05-18T02:32:39;101053.13;;;16.65;45.00
52291;BME280;39663;45.432;28.050;2023-05-18T02:33:11;101055.90;;;16.68;44.89
52291;BME280;39663;45.432;28.050;2023-05-18T02:33:42;101053.96;;;16.98;44.66
52291;BME280;39663;45.432;28.050;2023-05-18T02:34:14;101052.92;;;16.58;44.80
52291;BME280;39663;45.432;28.050;2023-05-18T02:34:45;101054.72;;;16.75;44.67
52291;BME280;39663;45.432;28.050;2023-05-18T02:35:17;101057.52;;;16.87;44.87
52291;BME280;39663;45.432;28.050;2023-05-18T02:35:48;101057.46;;;16.43;45.36
52291;BME280;39663;45.432;28.050;2023-05-18T02:36:19;101054.55;;;16.49;45.00
52291;BME280;39663;45.432;28.050;2023-05-18T02:36:51;101055.59;;;16.33;45.18
52291;BME280;39663;45.432;28.050;2023-05-18T02:37:22;101055.65;;;16.59;44.85
52291;BME280;39663;45.432;28.050;2023-05-18T02:37:53;101059.61;;;16.92;44.97
52291;BME280;39663;45.432;28.050;2023-05-18T02:38:25;101056.56;;;16.73;44.41
52291;BME280;39663;45.432;28.050;2023-05-18T02:38:56;101057.81;;;16.77;44.30
52291;BME280;39663;45.432;28.050;2023-05-18T02:39:28;101061.24;;;16.71;44.46
52291;BME280;39663;45.432;28.050;2023-05-18T02:39:59;101060.26;;;16.82;44.30
52291;BME280;39663;45.432;28.050;2023-05-18T02:40:30;101062.30;;;17.25;44.17
52291;BME280;39663;45.432;28.050;2023-05-18T02:41:02;101062.04;;;16.97;44.35
52291;BME280;39663;45.432;28.050;2023-05-18T02:41:35;101064.34;;;16.71;44.09
52291;BME280;39663;45.432;28.050;2023-05-18T02:42:07;101059.38;;;16.90;44.06
52291;BME280;39663;45.432;28.050;2023-05-18T02:42:38;101060.82;;;17.08;44.21
52291;BME280;39663;45.432;28.050;2023-05-18T02:43:10;101059.91;;;17.19;43.87
52291;BME280;39663;45.432;28.050;2023-05-18T02:43:41;101061.00;;;16.91;44.18
52291;BME280;39663;45.432;28.050;2023-05-18T02:44:13;101057.99;;;17.05;43.85
52291;BME280;39663;45.432;28.050;2023-05-18T02:44:45;101057.33;;;17.06;43.63
52291;BME280;39663;45.432;28.050;2023-05-18T02:45:16;101058.26;;;16.96;44.08
52291;BME280;39663;45.432;28.050;2023-05-18T02:45:48;101057.70;;;17.14;43.95
52291;BME280;39663;45.432;28.050;2023-05-18T02:46:19;101057.92;;;17.05;43.81
52291;BME280;39663;45.432;28.050;2023-05-18T02:46:51;101058.47;;;17.12;43.77
52291;BME280;39663;45.432;28.050;2023-05-18T02:47:22;101059.39;;;17.30;43.72
52291;BME280;39663;45.432;28.050;2023-05-18T02:47:53;101056.23;;;17.22;43.73
52291;BME280;39663;45.432;28.050;2023-05-18T02:48:25;101055.02;;;17.16;43.59
52291;BME280;39663;45.432;28.050;2023-05-18T02:48:57;101055.93;;;17.31;43.29
52291;BME280;39663;45.432;28.050;2023-05-18T02:49:28;101054.86;;;17.40;42.97
52291;BME280;39663;45.432;28.050;2023-05-18T02:50:00;101053.70;;;17.43;43.01
52291;BME280;39663;45.432;28.050;2023-05-18T02:50:31;101054.88;;;17.27;43.39
52291;BME280;39663;45.432;28.050;2023-05-18T02:51:03;101054.08;;;17.10;43.49
52291;BME280;39663;45.432;28.050;2023-05-18T02:51:34;101054.36;;;17.38;43.27
52291;BME280;39663;45.432;28.050;2023-05-18T02:52:06;101057.16;;;17.18;43.40
52291;BME280;39663;45.432;28.050;2023-05-18T02:52:37;101056.84;;;17.18;43.76
52291;BME280;39663;45.432;28.050;2023-05-18T02:53:09;101053.26;;;17.16;43.61
52291;BME280;39663;45.432;28.050;2023-05-18T02:53:40;101055.83;;;17.00;43.60
52291;BME280;39663;45.432;28.050;2023-05-18T02:54:12;101053.88;;;17.19;43.63
52291;BME280;39663;45.432;28.050;2023-05-18T02:54:43;101052.23;;;17.38;43.18
52291;BME280;39663;45.432;28.050;2023-05-18T02:55:15;101051.45;;;17.19;43.09
52291;BME280;39663;45.432;28.050;2023-05-18T02:55:46;101048.42;;;17.38;43.19
52291;BME280;39663;45.432;28.050;2023-05-18T02:56:18;101049.33;;;17.47;43.39
52291;BME280;39663;45.432;28.050;2023-05-18T02:56:49;101051.88;;;17.39;43.12
52291;BME280;39663;45.432;28.050;2023-05-18T02:57:21;101052.29;;;17.48;43.15
52291;BME280;39663;45.432;28.050;2023-05-18T02:57:52;101052.17;;;17.45;43.15